This is the latest recevied weather packets stored in our database for station/object VK3MAK-1. If no packets are shown the sender has not sent any weather packets the latest 10 day(s).
| Time | Temp. | Humidity | Pressure | Rain* | Wind** | Luminosity | Snow |
|---|---|---|---|---|---|---|---|
| 1777516803 | 25.56° C | 27% | 1023.7 hPa | 0 mm | 7.6 m/s, 0° | - | - |
| 1777516203 | 25.56° C | 29% | 1024.1 hPa | 0 mm | 7.15 m/s, 0° | - | - |
| 1777515603 | 25.56° C | 29% | 1024.1 hPa | 0 mm | 7.15 m/s, 0° | - | - |
| 1777515003 | 25.56° C | 29% | 1024.1 hPa | 0 mm | 7.15 m/s, 0° | - | - |
| 1777514403 | 23.89° C | 31% | 1024.3 hPa | 0 mm | 7.15 m/s, 0° | - | - |
| 1777513803 | 23.89° C | 31% | 1024.3 hPa | 0 mm | 7.15 m/s, 0° | - | - |
| 1777513205 | 23.89° C | 31% | 1024.3 hPa | 0 mm | 7.15 m/s, 0° | - | - |
| 1777512604 | 24.44° C | 32% | 1024.6 hPa | 0 mm | 6.71 m/s, 0° | - | - |
| 1777512004 | 24.44° C | 32% | 1024.6 hPa | 0 mm | 6.71 m/s, 0° | - | - |
| 1777511403 | 24.44° C | 32% | 1024.6 hPa | 0 mm | 6.71 m/s, 0° | - | - |
| 1777510803 | 22.22° C | 36% | 1025 hPa | 0 mm | 6.26 m/s, 0° | - | - |
| 1777510203 | 22.22° C | 36% | 1025 hPa | 0 mm | 6.26 m/s, 0° | - | - |
| 1777509603 | 22.22° C | 36% | 1025 hPa | 0 mm | 6.26 m/s, 0° | - | - |
| 1777509003 | 21.11° C | 40% | 1025.2 hPa | 0 mm | 5.81 m/s, 0° | - | - |
| 1777508403 | 21.11° C | 40% | 1025.2 hPa | 0 mm | 5.81 m/s, 0° | - | - |
| 1777507803 | 21.11° C | 40% | 1025.2 hPa | 0 mm | 5.81 m/s, 0° | - | - |
| 1777507204 | 18.33° C | 47% | 1025.4 hPa | 0 mm | 5.36 m/s, 0° | - | - |
| 1777506603 | 18.33° C | 47% | 1025.4 hPa | 0 mm | 5.36 m/s, 0° | - | - |
| 1777506003 | 18.33° C | 47% | 1025.4 hPa | 0 mm | 5.36 m/s, 0° | - | - |
| 1777505403 | 17.78° C | 51% | 1025.5 hPa | 0 mm | 5.36 m/s, 0° | - | - |
| 1777504804 | 17.78° C | 51% | 1025.5 hPa | 0 mm | 5.36 m/s, 0° | - | - |
| 1777504204 | 17.78° C | 51% | 1025.5 hPa | 0 mm | 5.36 m/s, 0° | - | - |
| 1777503604 | 15.56° C | 59% | 1025.4 hPa | 0 mm | 4.92 m/s, 23° | - | - |
| 1777503005 | 15.56° C | 59% | 1025.4 hPa | 0 mm | 4.92 m/s, 23° | - | - |
| 1777502405 | 15.56° C | 59% | 1025.4 hPa | 0 mm | 4.92 m/s, 23° | - | - |
* Rain latest hour (hover to see other rain measurements)
** Current wind speed in m/s (hover to see current wind gust speed)